sensor_id;sensor_type;location;lat;lon;timestamp;P1;P2;P0
47741;PMS5003;33504;52.066;6.096;2023-08-12T00:00:14;22;20;
47741;PMS5003;33504;52.066;6.096;2023-08-12T00:02:41;22;21;
47741;PMS5003;33504;52.066;6.096;2023-08-12T00:05:10;18;18;
47741;PMS5003;33504;52.066;6.096;2023-08-12T00:07:38;28;27;
47741;PMS5003;33504;52.066;6.096;2023-08-12T00:10:05;20;19;
47741;PMS5003;33504;52.066;6.096;2023-08-12T00:12:34;20;20;
47741;PMS5003;33504;52.066;6.096;2023-08-12T00:15:01;26;22;
47741;PMS5003;33504;52.066;6.096;2023-08-12T00:17:29;22;22;
47741;PMS5003;33504;52.066;6.096;2023-08-12T00:19:56;22;22;
47741;PMS5003;33504;52.066;6.096;2023-08-12T00:22:23;22;22;
47741;PMS5003;33504;52.066;6.096;2023-08-12T00:24:50;25;23;
47741;PMS5003;33504;52.066;6.096;2023-08-12T00:27:18;23;21;
47741;PMS5003;33504;52.066;6.096;2023-08-12T00:29:45;21;20;
47741;PMS5003;33504;52.066;6.096;2023-08-12T00:32:12;26;25;
47741;PMS5003;33504;52.066;6.096;2023-08-12T00:34:39;25;23;
47741;PMS5003;33504;52.066;6.096;2023-08-12T00:37:06;25;23;
47741;PMS5003;33504;52.066;6.096;2023-08-12T00:39:33;22;20;
47741;PMS5003;33504;52.066;6.096;2023-08-12T00:42:00;21;21;
47741;PMS5003;33504;52.066;6.096;2023-08-12T00:44:27;20;19;
47741;PMS5003;33504;52.066;6.096;2023-08-12T00:46:53;20;20;
47741;PMS5003;33504;52.066;6.096;2023-08-12T00:49:20;29;27;
47741;PMS5003;33504;52.066;6.096;2023-08-12T00:51:49;28;27;
47741;PMS5003;33504;52.066;6.096;2023-08-12T00:54:16;21;21;
47741;PMS5003;33504;52.066;6.096;2023-08-12T00:56:45;22;21;
47741;PMS5003;33504;52.066;6.096;2023-08-12T00:59:13;24;24;
47741;PMS5003;33504;52.066;6.096;2023-08-12T01:01:40;27;26;
47741;PMS5003;33504;52.066;6.096;2023-08-12T01:04:08;22;22;
47741;PMS5003;33504;52.066;6.096;2023-08-12T01:06:35;29;27;
47741;PMS5003;33504;52.066;6.096;2023-08-12T01:09:03;24;24;
47741;PMS5003;33504;52.066;6.096;2023-08-12T01:11:34;27;26;
47741;PMS5003;33504;52.066;6.096;2023-08-12T01:14:06;24;24;
47741;PMS5003;33504;52.066;6.096;2023-08-12T01:16:40;23;22;
47741;PMS5003;33504;52.066;6.096;2023-08-12T01:19:13;29;29;
47741;PMS5003;33504;52.066;6.096;2023-08-12T01:21:48;26;26;
47741;PMS5003;33504;52.066;6.096;2023-08-12T01:24:19;26;26;
47741;PMS5003;33504;52.066;6.096;2023-08-12T01:26:48;19;19;
47741;PMS5003;33504;52.066;6.096;2023-08-12T01:29:15;32;31;
47741;PMS5003;33504;52.066;6.096;2023-08-12T01:31:43;32;30;
47741;PMS5003;33504;52.066;6.096;2023-08-12T01:34:16;30;27;
47741;PMS5003;33504;52.066;6.096;2023-08-12T01:36:54;35;33;
47741;PMS5003;33504;52.066;6.096;2023-08-12T01:39:23;33;31;
47741;PMS5003;33504;52.066;6.096;2023-08-12T01:41:52;32;32;
47741;PMS5003;33504;52.066;6.096;2023-08-12T01:44:20;32;31;
47741;PMS5003;33504;52.066;6.096;2023-08-12T01:46:48;38;37;
47741;PMS5003;33504;52.066;6.096;2023-08-12T01:49:15;30;29;
47741;PMS5003;33504;52.066;6.096;2023-08-12T01:51:42;41;40;
47741;PMS5003;33504;52.066;6.096;2023-08-12T01:54:10;35;33;
47741;PMS5003;33504;52.066;6.096;2023-08-12T01:56:37;34;33;
47741;PMS5003;33504;52.066;6.096;2023-08-12T01:59:03;36;35;
47741;PMS5003;33504;52.066;6.096;2023-08-12T02:01:31;34;33;
47741;PMS5003;33504;52.066;6.096;2023-08-12T02:03:58;31;30;
47741;PMS5003;33504;52.066;6.096;2023-08-12T02:06:25;40;39;
47741;PMS5003;33504;52.066;6.096;2023-08-12T02:08:52;34;34;
47741;PMS5003;33504;52.066;6.096;2023-08-12T02:11:18;35;35;
47741;PMS5003;33504;52.066;6.096;2023-08-12T02:13:46;36;35;
47741;PMS5003;33504;52.066;6.096;2023-08-12T02:16:13;38;36;
47741;PMS5003;33504;52.066;6.096;2023-08-12T02:18:40;35;34;
47741;PMS5003;33504;52.066;6.096;2023-08-12T02:21:07;32;32;
47741;PMS5003;33504;52.066;6.096;2023-08-12T02:23:34;40;39;
47741;PMS5003;33504;52.066;6.096;2023-08-12T02:26:01;42;39;
47741;PMS5003;33504;52.066;6.096;2023-08-12T02:28:28;33;32;
47741;PMS5003;33504;52.066;6.096;2023-08-12T02:30:55;46;44;
47741;PMS5003;33504;52.066;6.096;2023-08-12T02:33:22;43;40;
47741;PMS5003;33504;52.066;6.096;2023-08-12T02:35:52;38;36;
47741;PMS5003;33504;52.066;6.096;2023-08-12T02:38:20;34;31;
47741;PMS5003;33504;52.066;6.096;2023-08-12T02:40:47;37;35;
47741;PMS5003;33504;52.066;6.096;2023-08-12T02:43:15;38;38;
47741;PMS5003;33504;52.066;6.096;2023-08-12T02:45:42;39;36;
47741;PMS5003;33504;52.066;6.096;2023-08-12T02:48:09;46;44;
47741;PMS5003;33504;52.066;6.096;2023-08-12T02:50:37;40;39;
47741;PMS5003;33504;52.066;6.096;2023-08-12T02:53:05;44;43;
47741;PMS5003;33504;52.066;6.096;2023-08-12T02:55:32;41;38;
47741;PMS5003;33504;52.066;6.096;2023-08-12T02:58:00;51;49;
47741;PMS5003;33504;52.066;6.096;2023-08-12T03:00:27;42;40;
47741;PMS5003;33504;52.066;6.096;2023-08-12T03:02:54;47;45;
47741;PMS5003;33504;52.066;6.096;2023-08-12T03:05:22;46;45;
47741;PMS5003;33504;52.066;6.096;2023-08-12T03:07:49;44;43;
47741;PMS5003;33504;52.066;6.096;2023-08-12T03:10:16;44;43;
47741;PMS5003;33504;52.066;6.096;2023-08-12T03:12:43;44;42;
47741;PMS5003;33504;52.066;6.096;2023-08-12T03:15:10;52;48;
47741;PMS5003;33504;52.066;6.096;2023-08-12T03:17:37;50;46;
47741;PMS5003;33504;52.066;6.096;2023-08-12T03:20:04;48;46;
47741;PMS5003;33504;52.066;6.096;2023-08-12T03:22:33;49;45;
47741;PMS5003;33504;52.066;6.096;2023-08-12T03:25:00;42;40;
47741;PMS5003;33504;52.066;6.096;2023-08-12T03:27:27;43;43;
47741;PMS5003;33504;52.066;6.096;2023-08-12T03:29:54;43;41;
47741;PMS5003;33504;52.066;6.096;2023-08-12T03:32:21;41;40;
47741;PMS5003;33504;52.066;6.096;2023-08-12T03:34:49;46;45;
47741;PMS5003;33504;52.066;6.096;2023-08-12T03:37:15;48;44;
47741;PMS5003;33504;52.066;6.096;2023-08-12T03:39:42;45;43;
47741;PMS5003;33504;52.066;6.096;2023-08-12T03:42:09;44;42;
47741;PMS5003;33504;52.066;6.096;2023-08-12T03:44:36;44;43;
47741;PMS5003;33504;52.066;6.096;2023-08-12T03:47:03;48;45;
47741;PMS5003;33504;52.066;6.096;2023-08-12T03:49:30;48;46;
47741;PMS5003;33504;52.066;6.096;2023-08-12T03:51:57;48;47;
47741;PMS5003;33504;52.066;6.096;2023-08-12T03:54:24;38;37;
47741;PMS5003;33504;52.066;6.096;2023-08-12T03:56:51;49;47;
47741;PMS5003;33504;52.066;6.096;2023-08-12T03:59:19;43;41;
47741;PMS5003;33504;52.066;6.096;2023-08-12T04:01:45;49;46;
47741;PMS5003;33504;52.066;6.096;2023-08-12T04:04:12;46;44;
47741;PMS5003;33504;52.066;6.096;2023-08-12T04:06:39;44;42;
47741;PMS5003;33504;52.066;6.096;2023-08-12T04:09:06;48;46;
47741;PMS5003;33504;52.066;6.096;2023-08-12T04:11:33;45;44;
47741;PMS5003;33504;52.066;6.096;2023-08-12T04:14:00;46;41;
47741;PMS5003;33504;52.066;6.096;2023-08-12T04:16:27;43;42;
47741;PMS5003;33504;52.066;6.096;2023-08-12T04:18:54;40;39;
47741;PMS5003;33504;52.066;6.096;2023-08-12T04:21:21;42;40;
47741;PMS5003;33504;52.066;6.096;2023-08-12T04:23:49;47;45;
47741;PMS5003;33504;52.066;6.096;2023-08-12T04:26:16;39;37;
47741;PMS5003;33504;52.066;6.096;2023-08-12T04:28:43;44;44;
47741;PMS5003;33504;52.066;6.096;2023-08-12T04:31:10;47;47;
47741;PMS5003;33504;52.066;6.096;2023-08-12T04:33:37;40;38;
47741;PMS5003;33504;52.066;6.096;2023-08-12T04:36:04;44;44;
47741;PMS5003;33504;52.066;6.096;2023-08-12T04:38:32;40;40;
47741;PMS5003;33504;52.066;6.096;2023-08-12T04:41:00;44;42;
47741;PMS5003;33504;52.066;6.096;2023-08-12T04:43:26;43;42;
47741;PMS5003;33504;52.066;6.096;2023-08-12T04:45:53;40;40;
47741;PMS5003;33504;52.066;6.096;2023-08-12T04:48:21;37;36;
47741;PMS5003;33504;52.066;6.096;2023-08-12T04:50:48;57;54;
47741;PMS5003;33504;52.066;6.096;2023-08-12T04:53:15;47;44;
47741;PMS5003;33504;52.066;6.096;2023-08-12T04:55:42;43;39;
47741;PMS5003;33504;52.066;6.096;2023-08-12T04:58:09;41;38;
47741;PMS5003;33504;52.066;6.096;2023-08-12T05:00:35;36;35;
47741;PMS5003;33504;52.066;6.096;2023-08-12T05:03:03;45;43;
47741;PMS5003;33504;52.066;6.096;2023-08-12T05:05:30;39;39;
47741;PMS5003;33504;52.066;6.096;2023-08-12T05:07:57;38;37;
47741;PMS5003;33504;52.066;6.096;2023-08-12T05:10:24;45;43;
47741;PMS5003;33504;52.066;6.096;2023-08-12T05:12:51;40;38;
47741;PMS5003;33504;52.066;6.096;2023-08-12T05:15:18;34;33;
47741;PMS5003;33504;52.066;6.096;2023-08-12T05:17:46;37;36;
47741;PMS5003;33504;52.066;6.096;2023-08-12T05:20:13;40;38;
47741;PMS5003;33504;52.066;6.096;2023-08-12T05:22:40;37;36;
47741;PMS5003;33504;52.066;6.096;2023-08-12T05:25:08;44;43;
47741;PMS5003;33504;52.066;6.096;2023-08-12T05:27:35;41;39;
47741;PMS5003;33504;52.066;6.096;2023-08-12T05:30:02;43;42;
47741;PMS5003;33504;52.066;6.096;2023-08-12T05:32:29;34;33;
47741;PMS5003;33504;52.066;6.096;2023-08-12T05:34:57;39;38;
47741;PMS5003;33504;52.066;6.096;2023-08-12T05:37:24;45;44;
47741;PMS5003;33504;52.066;6.096;2023-08-12T05:39:51;70;69;
47741;PMS5003;33504;52.066;6.096;2023-08-12T05:42:18;36;36;
47741;PMS5003;33504;52.066;6.096;2023-08-12T05:44:45;33;32;
47741;PMS5003;33504;52.066;6.096;2023-08-12T05:47:12;35;34;
47741;PMS5003;33504;52.066;6.096;2023-08-12T05:49:39;38;36;
47741;PMS5003;33504;52.066;6.096;2023-08-12T05:52:06;39;37;
47741;PMS5003;33504;52.066;6.096;2023-08-12T05:54:33;35;34;
47741;PMS5003;33504;52.066;6.096;2023-08-12T05:57:00;36;34;
47741;PMS5003;33504;52.066;6.096;2023-08-12T05:59:26;40;39;
47741;PMS5003;33504;52.066;6.096;2023-08-12T06:01:54;37;36;
47741;PMS5003;33504;52.066;6.096;2023-08-12T06:04:21;34;33;
47741;PMS5003;33504;52.066;6.096;2023-08-12T06:06:48;33;33;
47741;PMS5003;33504;52.066;6.096;2023-08-12T06:09:15;38;37;
47741;PMS5003;33504;52.066;6.096;2023-08-12T06:11:42;58;56;
47741;PMS5003;33504;52.066;6.096;2023-08-12T06:14:09;45;42;
47741;PMS5003;33504;52.066;6.096;2023-08-12T06:16:36;45;44;
47741;PMS5003;33504;52.066;6.096;2023-08-12T06:19:03;43;42;
47741;PMS5003;33504;52.066;6.096;2023-08-12T06:21:30;31;31;
47741;PMS5003;33504;52.066;6.096;2023-08-12T06:23:58;32;31;
47741;PMS5003;33504;52.066;6.096;2023-08-12T06:26:25;28;28;
47741;PMS5003;33504;52.066;6.096;2023-08-12T06:28:52;29;28;
47741;PMS5003;33504;52.066;6.096;2023-08-12T06:31:19;34;34;
47741;PMS5003;33504;52.066;6.096;2023-08-12T06:33:45;33;32;
47741;PMS5003;33504;52.066;6.096;2023-08-12T06:36:12;35;31;
47741;PMS5003;33504;52.066;6.096;2023-08-12T06:38:40;28;28;
47741;PMS5003;33504;52.066;6.096;2023-08-12T06:41:06;30;30;
47741;PMS5003;33504;52.066;6.096;2023-08-12T06:43:33;27;25;
47741;PMS5003;33504;52.066;6.096;2023-08-12T06:46:00;25;25;
47741;PMS5003;33504;52.066;6.096;2023-08-12T06:48:28;28;28;
47741;PMS5003;33504;52.066;6.096;2023-08-12T06:50:55;28;27;
47741;PMS5003;33504;52.066;6.096;2023-08-12T06:53:24;31;29;
47741;PMS5003;33504;52.066;6.096;2023-08-12T06:55:51;28;27;
47741;PMS5003;33504;52.066;6.096;2023-08-12T06:58:17;24;24;
47741;PMS5003;33504;52.066;6.096;2023-08-12T07:00:45;29;27;
47741;PMS5003;33504;52.066;6.096;2023-08-12T07:03:11;22;22;
47741;PMS5003;33504;52.066;6.096;2023-08-12T07:05:39;25;24;
47741;PMS5003;33504;52.066;6.096;2023-08-12T07:08:05;28;26;
47741;PMS5003;33504;52.066;6.096;2023-08-12T07:10:33;25;24;
47741;PMS5003;33504;52.066;6.096;2023-08-12T07:13:00;20;20;
47741;PMS5003;33504;52.066;6.096;2023-08-12T07:15:27;22;22;
47741;PMS5003;33504;52.066;6.096;2023-08-12T07:17:54;21;21;
47741;PMS5003;33504;52.066;6.096;2023-08-12T07:20:21;25;25;
47741;PMS5003;33504;52.066;6.096;2023-08-12T07:22:48;23;23;
47741;PMS5003;33504;52.066;6.096;2023-08-12T07:25:15;25;23;
47741;PMS5003;33504;52.066;6.096;2023-08-12T07:27:42;23;23;
47741;PMS5003;33504;52.066;6.096;2023-08-12T07:30:09;24;22;
47741;PMS5003;33504;52.066;6.096;2023-08-12T07:32:37;22;22;
47741;PMS5003;33504;52.066;6.096;2023-08-12T07:35:05;21;20;
47741;PMS5003;33504;52.066;6.096;2023-08-12T07:37:32;24;23;
47741;PMS5003;33504;52.066;6.096;2023-08-12T07:39:59;27;26;
47741;PMS5003;33504;52.066;6.096;2023-08-12T07:42:26;26;25;
47741;PMS5003;33504;52.066;6.096;2023-08-12T07:44:53;22;21;
47741;PMS5003;33504;52.066;6.096;2023-08-12T07:47:20;22;20;
47741;PMS5003;33504;52.066;6.096;2023-08-12T07:49:48;21;20;
47741;PMS5003;33504;52.066;6.096;2023-08-12T07:52:15;20;19;
47741;PMS5003;33504;52.066;6.096;2023-08-12T07:54:42;21;20;
47741;PMS5003;33504;52.066;6.096;2023-08-12T07:57:09;22;20;
47741;PMS5003;33504;52.066;6.096;2023-08-12T07:59:36;19;18;
47741;PMS5003;33504;52.066;6.096;2023-08-12T08:02:04;19;19;
47741;PMS5003;33504;52.066;6.096;2023-08-12T08:04:31;18;17;
47741;PMS5003;33504;52.066;6.096;2023-08-12T08:06:58;19;19;
47741;PMS5003;33504;52.066;6.096;2023-08-12T08:09:25;18;17;
47741;PMS5003;33504;52.066;6.096;2023-08-12T08:11:53;18;18;
47741;PMS5003;33504;52.066;6.096;2023-08-12T08:14:20;24;23;
47741;PMS5003;33504;52.066;6.096;2023-08-12T08:16:47;14;13;
47741;PMS5003;33504;52.066;6.096;2023-08-12T08:19:14;18;16;
47741;PMS5003;33504;52.066;6.096;2023-08-12T08:21:41;14;13;
47741;PMS5003;33504;52.066;6.096;2023-08-12T08:24:09;16;16;
47741;PMS5003;33504;52.066;6.096;2023-08-12T08:26:36;10;10;
47741;PMS5003;33504;52.066;6.096;2023-08-12T08:29:04;10;9;
47741;PMS5003;33504;52.066;6.096;2023-08-12T08:31:31;11;11;
47741;PMS5003;33504;52.066;6.096;2023-08-12T08:33:58;10;10;
47741;PMS5003;33504;52.066;6.096;2023-08-12T08:36:26;12;12;
47741;PMS5003;33504;52.066;6.096;2023-08-12T08:38:53;10;9;
47741;PMS5003;33504;52.066;6.096;2023-08-12T08:41:20;8;8;
47741;PMS5003;33504;52.066;6.096;2023-08-12T08:43:48;8;8;
47741;PMS5003;33504;52.066;6.096;2023-08-12T08:46:15;9;8;
47741;PMS5003;33504;52.066;6.096;2023-08-12T08:48:43;6;6;
47741;PMS5003;33504;52.066;6.096;2023-08-12T08:51:11;8;7;
47741;PMS5003;33504;52.066;6.096;2023-08-12T08:53:39;6;6;
47741;PMS5003;33504;52.066;6.096;2023-08-12T08:56:08;7;6;
47741;PMS5003;33504;52.066;6.096;2023-08-12T08:58:35;9;9;
47741;PMS5003;33504;52.066;6.096;2023-08-12T09:01:02;9;9;
47741;PMS5003;33504;52.066;6.096;2023-08-12T09:03:30;7;7;
47741;PMS5003;33504;52.066;6.096;2023-08-12T09:05:57;8;8;
47741;PMS5003;33504;52.066;6.096;2023-08-12T09:08:25;8;7;
47741;PMS5003;33504;52.066;6.096;2023-08-12T09:10:54;9;9;
47741;PMS5003;33504;52.066;6.096;2023-08-12T09:13:23;10;9;
47741;PMS5003;33504;52.066;6.096;2023-08-12T09:15:51;10;9;
47741;PMS5003;33504;52.066;6.096;2023-08-12T09:18:18;9;9;
47741;PMS5003;33504;52.066;6.096;2023-08-12T09:20:45;8;8;
47741;PMS5003;33504;52.066;6.096;2023-08-12T09:23:12;7;7;
47741;PMS5003;33504;52.066;6.096;2023-08-12T09:25:41;6;6;
47741;PMS5003;33504;52.066;6.096;2023-08-12T09:28:09;8;7;
47741;PMS5003;33504;52.066;6.096;2023-08-12T09:30:36;8;8;
47741;PMS5003;33504;52.066;6.096;2023-08-12T09:33:04;7;7;
47741;PMS5003;33504;52.066;6.096;2023-08-12T09:35:33;9;9;
47741;PMS5003;33504;52.066;6.096;2023-08-12T09:38:01;7;7;
47741;PMS5003;33504;52.066;6.096;2023-08-12T09:40:29;8;8;
47741;PMS5003;33504;52.066;6.096;2023-08-12T09:42:57;7;7;
47741;PMS5003;33504;52.066;6.096;2023-08-12T09:45:24;11;11;
47741;PMS5003;33504;52.066;6.096;2023-08-12T09:47:52;26;26;
47741;PMS5003;33504;52.066;6.096;2023-08-12T09:50:21;30;30;
47741;PMS5003;33504;52.066;6.096;2023-08-12T09:52:49;9;9;
47741;PMS5003;33504;52.066;6.096;2023-08-12T09:55:17;7;7;
47741;PMS5003;33504;52.066;6.096;2023-08-12T09:57:47;4;4;
47741;PMS5003;33504;52.066;6.096;2023-08-12T10:00:17;2;2;
47741;PMS5003;33504;52.066;6.096;2023-08-12T10:02:46;2;2;
47741;PMS5003;33504;52.066;6.096;2023-08-12T10:05:17;2;2;
47741;PMS5003;33504;52.066;6.096;2023-08-12T10:07:48;2;1;
47741;PMS5003;33504;52.066;6.096;2023-08-12T10:10:15;2;2;
47741;PMS5003;33504;52.066;6.096;2023-08-12T10:12:43;2;2;
47741;PMS5003;33504;52.066;6.096;2023-08-12T10:15:10;1;1;
47741;PMS5003;33504;52.066;6.096;2023-08-12T10:17:38;1;1;
47741;PMS5003;33504;52.066;6.096;2023-08-12T10:20:07;2;2;
47741;PMS5003;33504;52.066;6.096;2023-08-12T10:22:35;0;0;
47741;PMS5003;33504;52.066;6.096;2023-08-12T10:25:05;2;2;
47741;PMS5003;33504;52.066;6.096;2023-08-12T10:27:34;2;2;
47741;PMS5003;33504;52.066;6.096;2023-08-12T10:30:02;1;1;
47741;PMS5003;33504;52.066;6.096;2023-08-12T10:32:30;2;2;
47741;PMS5003;33504;52.066;6.096;2023-08-12T10:34:58;2;2;
47741;PMS5003;33504;52.066;6.096;2023-08-12T10:37:26;1;1;
47741;PMS5003;33504;52.066;6.096;2023-08-12T10:39:54;0;0;
47741;PMS5003;33504;52.066;6.096;2023-08-12T10:42:54;1;1;
47741;PMS5003;33504;52.066;6.096;2023-08-12T10:45:20;2;2;
47741;PMS5003;33504;52.066;6.096;2023-08-12T10:47:48;2;2;
47741;PMS5003;33504;52.066;6.096;2023-08-12T10:50:35;2;2;
47741;PMS5003;33504;52.066;6.096;2023-08-12T10:53:21;2;2;
47741;PMS5003;33504;52.066;6.096;2023-08-12T10:55:50;3;3;
47741;PMS5003;33504;52.066;6.096;2023-08-12T10:58:24;2;2;
47741;PMS5003;33504;52.066;6.096;2023-08-12T11:00:53;5;5;
47741;PMS5003;33504;52.066;6.096;2023-08-12T11:03:20;5;4;
47741;PMS5003;33504;52.066;6.096;2023-08-12T11:05:48;5;5;
47741;PMS5003;33504;52.066;6.096;2023-08-12T11:08:15;3;3;
47741;PMS5003;33504;52.066;6.096;2023-08-12T11:10:42;5;5;
47741;PMS5003;33504;52.066;6.096;2023-08-12T11:13:10;8;7;
47741;PMS5003;33504;52.066;6.096;2023-08-12T11:15:38;6;6;
47741;PMS5003;33504;52.066;6.096;2023-08-12T11:18:08;5;5;
47741;PMS5003;33504;52.066;6.096;2023-08-12T11:20:37;6;4;
47741;PMS5003;33504;52.066;6.096;2023-08-12T11:23:04;7;6;
47741;PMS5003;33504;52.066;6.096;2023-08-12T11:25:33;4;4;
47741;PMS5003;33504;52.066;6.096;2023-08-12T11:28:01;4;4;
47741;PMS5003;33504;52.066;6.096;2023-08-12T11:30:30;1;1;
47741;PMS5003;33504;52.066;6.096;2023-08-12T11:32:57;3;3;
47741;PMS5003;33504;52.066;6.096;2023-08-12T11:35:26;2;1;
47741;PMS5003;33504;52.066;6.096;2023-08-12T11:37:54;1;1;
47741;PMS5003;33504;52.066;6.096;2023-08-12T11:40:22;1;1;
47741;PMS5003;33504;52.066;6.096;2023-08-12T11:42:50;2;2;
47741;PMS5003;33504;52.066;6.096;2023-08-12T11:45:18;3;3;
47741;PMS5003;33504;52.066;6.096;2023-08-12T11:47:47;3;2;
47741;PMS5003;33504;52.066;6.096;2023-08-12T11:50:14;2;2;
47741;PMS5003;33504;52.066;6.096;2023-08-12T11:52:41;1;1;
47741;PMS5003;33504;52.066;6.096;2023-08-12T11:55:09;1;1;
47741;PMS5003;33504;52.066;6.096;2023-08-12T11:57:36;2;2;
47741;PMS5003;33504;52.066;6.096;2023-08-12T12:00:07;2;2;
47741;PMS5003;33504;52.066;6.096;2023-08-12T12:02:36;4;3;
47741;PMS5003;33504;52.066;6.096;2023-08-12T12:05:07;3;2;
47741;PMS5003;33504;52.066;6.096;2023-08-12T12:07:37;1;1;
47741;PMS5003;33504;52.066;6.096;2023-08-12T12:10:05;1;1;
47741;PMS5003;33504;52.066;6.096;2023-08-12T12:12:33;2;2;
47741;PMS5003;33504;52.066;6.096;2023-08-12T12:15:00;3;3;
47741;PMS5003;33504;52.066;6.096;2023-08-12T12:17:28;5;4;
47741;PMS5003;33504;52.066;6.096;2023-08-12T12:19:56;8;6;
47741;PMS5003;33504;52.066;6.096;2023-08-12T12:22:28;8;8;
47741;PMS5003;33504;52.066;6.096;2023-08-12T12:24:57;5;4;
47741;PMS5003;33504;52.066;6.096;2023-08-12T12:27:25;3;3;
47741;PMS5003;33504;52.066;6.096;2023-08-12T12:29:53;4;3;
47741;PMS5003;33504;52.066;6.096;2023-08-12T12:32:20;6;6;
47741;PMS5003;33504;52.066;6.096;2023-08-12T12:34:48;3;3;
47741;PMS5003;33504;52.066;6.096;2023-08-12T12:37:15;3;3;
47741;PMS5003;33504;52.066;6.096;2023-08-12T12:39:42;7;6;
47741;PMS5003;33504;52.066;6.096;2023-08-12T12:42:10;3;3;
47741;PMS5003;33504;52.066;6.096;2023-08-12T12:44:37;4;3;
47741;PMS5003;33504;52.066;6.096;2023-08-12T12:47:04;3;3;
47741;PMS5003;33504;52.066;6.096;2023-08-12T12:49:31;3;3;
47741;PMS5003;33504;52.066;6.096;2023-08-12T12:51:58;2;2;
47741;PMS5003;33504;52.066;6.096;2023-08-12T12:54:26;5;3;
47741;PMS5003;33504;52.066;6.096;2023-08-12T12:56:53;2;2;
47741;PMS5003;33504;52.066;6.096;2023-08-12T12:59:20;3;3;
47741;PMS5003;33504;52.066;6.096;2023-08-12T13:01:47;3;3;
47741;PMS5003;33504;52.066;6.096;2023-08-12T13:04:15;3;3;
47741;PMS5003;33504;52.066;6.096;2023-08-12T13:06:42;3;3;
47741;PMS5003;33504;52.066;6.096;2023-08-12T13:09:09;4;3;
47741;PMS5003;33504;52.066;6.096;2023-08-12T13:11:37;4;3;
47741;PMS5003;33504;52.066;6.096;2023-08-12T13:14:04;4;3;
47741;PMS5003;33504;52.066;6.096;2023-08-12T13:16:31;3;2;
47741;PMS5003;33504;52.066;6.096;2023-08-12T13:18:58;4;3;
47741;PMS5003;33504;52.066;6.096;2023-08-12T13:21:26;4;3;
47741;PMS5003;33504;52.066;6.096;2023-08-12T13:23:53;2;2;
47741;PMS5003;33504;52.066;6.096;2023-08-12T13:26:20;3;3;
47741;PMS5003;33504;52.066;6.096;2023-08-12T13:28:47;4;4;
47741;PMS5003;33504;52.066;6.096;2023-08-12T13:31:15;3;3;
47741;PMS5003;33504;52.066;6.096;2023-08-12T13:33:42;3;3;
47741;PMS5003;33504;52.066;6.096;2023-08-12T13:36:09;3;3;
47741;PMS5003;33504;52.066;6.096;2023-08-12T13:38:36;3;3;
47741;PMS5003;33504;52.066;6.096;2023-08-12T13:41:04;5;3;
47741;PMS5003;33504;52.066;6.096;2023-08-12T13:43:31;4;4;
47741;PMS5003;33504;52.066;6.096;2023-08-12T13:45:59;5;5;
47741;PMS5003;33504;52.066;6.096;2023-08-12T13:48:26;7;5;
47741;PMS5003;33504;52.066;6.096;2023-08-12T13:50:54;6;6;
47741;PMS5003;33504;52.066;6.096;2023-08-12T13:53:21;4;4;
47741;PMS5003;33504;52.066;6.096;2023-08-12T13:55:48;4;4;
47741;PMS5003;33504;52.066;6.096;2023-08-12T13:58:16;5;5;
47741;PMS5003;33504;52.066;6.096;2023-08-12T14:00:43;4;4;
47741;PMS5003;33504;52.066;6.096;2023-08-12T14:03:10;3;3;
47741;PMS5003;33504;52.066;6.096;2023-08-12T14:05:37;4;4;
47741;PMS5003;33504;52.066;6.096;2023-08-12T14:08:05;5;5;
47741;PMS5003;33504;52.066;6.096;2023-08-12T14:10:32;4;4;
47741;PMS5003;33504;52.066;6.096;2023-08-12T14:12:59;4;4;
47741;PMS5003;33504;52.066;6.096;2023-08-12T14:15:27;4;4;
47741;PMS5003;33504;52.066;6.096;2023-08-12T14:17:54;6;5;
47741;PMS5003;33504;52.066;6.096;2023-08-12T14:20:21;6;6;
47741;PMS5003;33504;52.066;6.096;2023-08-12T14:22:48;4;4;
47741;PMS5003;33504;52.066;6.096;2023-08-12T14:25:16;3;3;
47741;PMS5003;33504;52.066;6.096;2023-08-12T14:27:43;4;3;
47741;PMS5003;33504;52.066;6.096;2023-08-12T14:30:10;5;4;
47741;PMS5003;33504;52.066;6.096;2023-08-12T14:32:38;4;4;
47741;PMS5003;33504;52.066;6.096;2023-08-12T14:35:06;5;4;
47741;PMS5003;33504;52.066;6.096;2023-08-12T14:37:34;4;4;
47741;PMS5003;33504;52.066;6.096;2023-08-12T14:40:01;5;5;
47741;PMS5003;33504;52.066;6.096;2023-08-12T14:42:28;4;4;
47741;PMS5003;33504;52.066;6.096;2023-08-12T14:44:56;4;3;
47741;PMS5003;33504;52.066;6.096;2023-08-12T14:47:23;3;3;
47741;PMS5003;33504;52.066;6.096;2023-08-12T14:49:50;4;4;
47741;PMS5003;33504;52.066;6.096;2023-08-12T14:52:18;4;4;
47741;PMS5003;33504;52.066;6.096;2023-08-12T14:54:46;2;2;
47741;PMS5003;33504;52.066;6.096;2023-08-12T14:57:13;4;4;
47741;PMS5003;33504;52.066;6.096;2023-08-12T14:59:41;4;4;
47741;PMS5003;33504;52.066;6.096;2023-08-12T15:02:08;3;3;
47741;PMS5003;33504;52.066;6.096;2023-08-12T15:04:36;4;4;
47741;PMS5003;33504;52.066;6.096;2023-08-12T15:07:03;4;3;
47741;PMS5003;33504;52.066;6.096;2023-08-12T15:09:30;3;3;
47741;PMS5003;33504;52.066;6.096;2023-08-12T15:11:57;7;7;
47741;PMS5003;33504;52.066;6.096;2023-08-12T15:14:25;6;5;
47741;PMS5003;33504;52.066;6.096;2023-08-12T15:16:52;5;5;
47741;PMS5003;33504;52.066;6.096;2023-08-12T15:19:19;4;3;
47741;PMS5003;33504;52.066;6.096;2023-08-12T15:21:47;6;5;
47741;PMS5003;33504;52.066;6.096;2023-08-12T15:24:14;4;3;
47741;PMS5003;33504;52.066;6.096;2023-08-12T15:26:41;2;2;
47741;PMS5003;33504;52.066;6.096;2023-08-12T15:29:08;2;2;
47741;PMS5003;33504;52.066;6.096;2023-08-12T15:31:36;3;3;
47741;PMS5003;33504;52.066;6.096;2023-08-12T15:34:03;2;1;
47741;PMS5003;33504;52.066;6.096;2023-08-12T15:36:30;1;1;
47741;PMS5003;33504;52.066;6.096;2023-08-12T15:38:57;3;2;
47741;PMS5003;33504;52.066;6.096;2023-08-12T15:41:25;2;1;
47741;PMS5003;33504;52.066;6.096;2023-08-12T15:43:52;1;1;
47741;PMS5003;33504;52.066;6.096;2023-08-12T15:46:19;2;2;
47741;PMS5003;33504;52.066;6.096;2023-08-12T15:48:46;3;3;
47741;PMS5003;33504;52.066;6.096;2023-08-12T15:51:14;0;0;
47741;PMS5003;33504;52.066;6.096;2023-08-12T15:53:41;2;2;
47741;PMS5003;33504;52.066;6.096;2023-08-12T15:56:08;3;3;
47741;PMS5003;33504;52.066;6.096;2023-08-12T15:58:35;1;1;
47741;PMS5003;33504;52.066;6.096;2023-08-12T16:01:03;2;1;
47741;PMS5003;33504;52.066;6.096;2023-08-12T16:03:30;3;3;
47741;PMS5003;33504;52.066;6.096;2023-08-12T16:05:57;3;2;
47741;PMS5003;33504;52.066;6.096;2023-08-12T16:08:25;3;2;
47741;PMS5003;33504;52.066;6.096;2023-08-12T16:10:52;3;3;
47741;PMS5003;33504;52.066;6.096;2023-08-12T16:13:19;2;1;
47741;PMS5003;33504;52.066;6.096;2023-08-12T16:15:46;2;2;
47741;PMS5003;33504;52.066;6.096;2023-08-12T16:18:14;4;2;
47741;PMS5003;33504;52.066;6.096;2023-08-12T16:20:41;3;3;
47741;PMS5003;33504;52.066;6.096;2023-08-12T16:23:08;4;3;
47741;PMS5003;33504;52.066;6.096;2023-08-12T16:25:36;3;2;
47741;PMS5003;33504;52.066;6.096;2023-08-12T16:28:03;4;4;
47741;PMS5003;33504;52.066;6.096;2023-08-12T16:30:30;3;3;
47741;PMS5003;33504;52.066;6.096;2023-08-12T16:32:57;4;4;
47741;PMS5003;33504;52.066;6.096;2023-08-12T16:35:25;5;4;